createdAt,value
2018-05-08T00:00:04.080Z,17.81
2018-05-08T00:02:33.208Z,17.82
2018-05-08T00:05:02.610Z,17.81
2018-05-08T00:07:32.062Z,17.84
2018-05-08T00:10:01.913Z,17.87
2018-05-08T00:12:31.631Z,18.00
2018-05-08T00:15:00.845Z,17.89
2018-05-08T00:17:30.237Z,17.74
2018-05-08T00:19:59.841Z,17.88
2018-05-08T00:22:29.034Z,18.07
2018-05-08T00:24:58.249Z,18.33
2018-05-08T00:27:27.304Z,18.31
2018-05-08T00:29:56.516Z,18.71
2018-05-08T00:32:25.623Z,18.56
2018-05-08T00:34:54.987Z,18.73
2018-05-08T00:37:24.563Z,18.82
2018-05-08T00:39:53.765Z,18.67
2018-05-08T00:42:23.008Z,18.87
2018-05-08T00:44:52.238Z,18.85
2018-05-08T00:47:21.377Z,19.02
2018-05-08T00:49:50.455Z,18.89
2018-05-08T00:52:19.671Z,18.64
2018-05-08T00:55:07.783Z,18.69
2018-05-08T00:57:37.000Z,18.58
2018-05-08T01:00:06.494Z,18.59
2018-05-08T01:02:35.760Z,18.67
2018-05-08T01:05:05.186Z,18.71
2018-05-08T01:07:34.357Z,18.52
2018-05-08T01:10:03.591Z,18.37
2018-05-08T01:12:33.603Z,18.17
2018-05-08T01:15:02.869Z,17.99
2018-05-08T01:17:32.393Z,17.77
2018-05-08T01:20:01.705Z,17.84
2018-05-08T01:22:31.109Z,17.94
2018-05-08T01:25:00.188Z,17.98
2018-05-08T01:27:29.464Z,17.93
2018-05-08T01:29:59.076Z,17.92
2018-05-08T01:32:28.124Z,18.01
2018-05-08T01:34:57.324Z,18.01
2018-05-08T01:37:26.764Z,18.20
2018-05-08T01:39:55.880Z,18.27
2018-05-08T01:42:25.013Z,18.16
2018-05-08T01:44:54.290Z,18.16
2018-05-08T01:47:23.724Z,18.41
2018-05-08T01:49:52.856Z,18.39
2018-05-08T01:52:22.217Z,18.15
2018-05-08T01:54:51.342Z,18.03
2018-05-08T01:57:20.616Z,18.06
2018-05-08T01:59:49.844Z,18.07
2018-05-08T02:02:18.938Z,18.02
2018-05-08T02:04:47.896Z,18.15
2018-05-08T02:07:17.010Z,18.28
2018-05-08T02:09:46.605Z,18.28
2018-05-08T02:12:15.777Z,18.38
2018-05-08T02:14:44.928Z,18.23
2018-05-08T02:17:14.457Z,18.00
2018-05-08T02:19:43.793Z,17.88
2018-05-08T02:22:12.940Z,17.84
2018-05-08T02:24:42.293Z,17.80
2018-05-08T02:27:11.465Z,17.81
2018-05-08T02:29:40.609Z,17.84
2018-05-08T02:32:09.909Z,17.69
2018-05-08T02:34:39.422Z,17.59
2018-05-08T02:37:08.723Z,17.60
2018-05-08T02:39:37.940Z,17.55
2018-05-08T02:42:07.172Z,17.55
2018-05-08T02:44:36.588Z,17.52
2018-05-08T02:47:05.789Z,17.50
2018-05-08T02:49:34.841Z,17.59
2018-05-08T02:52:04.399Z,17.46
2018-05-08T02:54:33.544Z,17.43
2018-05-08T02:57:02.581Z,17.32
2018-05-08T02:59:31.660Z,17.25
2018-05-08T03:02:00.697Z,17.12
2018-05-08T03:04:30.744Z,17.11
2018-05-08T03:07:00.132Z,17.11
2018-05-08T03:09:29.510Z,17.12
2018-05-08T03:11:58.488Z,17.19
2018-05-08T03:14:27.548Z,17.17
2018-05-08T03:16:56.653Z,17.16
2018-05-08T03:19:25.905Z,17.24
2018-05-08T03:21:55.062Z,17.22
2018-05-08T03:24:24.290Z,17.30
2018-05-08T03:26:53.492Z,17.49
2018-05-08T03:29:22.581Z,17.43
2018-05-08T03:31:51.607Z,17.69
2018-05-08T03:34:20.667Z,17.78
2018-05-08T03:36:49.916Z,17.74
2018-05-08T03:39:18.943Z,18.27
2018-05-08T03:41:47.943Z,18.00
2018-05-08T03:44:17.252Z,17.99
2018-05-08T03:46:46.316Z,18.38
2018-05-08T03:49:16.072Z,18.33
2018-05-08T03:51:45.080Z,18.03
2018-05-08T03:54:14.499Z,17.89
2018-05-08T03:56:43.736Z,17.94
2018-05-08T03:59:13.037Z,18.18
2018-05-08T04:01:53.484Z,18.23
2018-05-08T04:07:33.718Z,18.27
2018-05-08T04:10:03.543Z,18.77
2018-05-08T04:12:32.733Z,18.48
2018-05-08T04:15:01.850Z,18.59
2018-05-08T04:17:31.080Z,18.72
2018-05-08T04:20:00.404Z,18.84
2018-05-08T04:22:29.671Z,19.03
2018-05-08T04:24:58.797Z,19.01
2018-05-08T04:27:28.044Z,19.09
2018-05-08T04:29:57.214Z,19.38
2018-05-08T04:32:26.368Z,19.14
2018-05-08T04:34:55.464Z,19.23
2018-05-08T04:37:24.867Z,19.27
2018-05-08T04:39:53.992Z,19.50
2018-05-08T04:42:23.243Z,19.46
2018-05-08T04:44:53.184Z,19.34
2018-05-08T04:47:22.453Z,19.15
2018-05-08T04:49:51.670Z,19.29
2018-05-08T04:52:20.951Z,19.19
2018-05-08T04:54:50.030Z,19.36
2018-05-08T04:57:19.000Z,19.53
2018-05-08T04:59:48.006Z,19.39
2018-05-08T05:02:17.337Z,19.70
2018-05-08T05:04:46.474Z,19.95
2018-05-08T05:07:15.912Z,19.73
2018-05-08T05:09:45.040Z,19.73
2018-05-08T05:12:14.197Z,19.55
2018-05-08T05:14:43.553Z,19.70
2018-05-08T05:17:12.990Z,19.55
2018-05-08T05:19:42.202Z,19.77
2018-05-08T05:22:11.214Z,20.13
2018-05-08T05:24:40.534Z,19.91
2018-05-08T05:27:09.830Z,19.82
2018-05-08T05:29:38.945Z,19.68
2018-05-08T05:32:08.164Z,19.75
2018-05-08T05:34:37.364Z,20.18
2018-05-08T05:37:06.425Z,19.95
2018-05-08T05:39:35.637Z,19.73
2018-05-08T05:42:04.732Z,19.86
2018-05-08T05:44:33.920Z,19.84
2018-05-08T05:47:03.189Z,20.07
2018-05-08T05:49:32.709Z,20.00
2018-05-08T05:52:01.752Z,20.18
2018-05-08T05:54:30.992Z,20.01
2018-05-08T05:57:00.234Z,20.52
2018-05-08T05:59:29.394Z,20.92
2018-05-08T06:01:58.358Z,20.99
2018-05-08T06:04:27.452Z,20.56
2018-05-08T06:06:56.480Z,20.58
2018-05-08T06:09:25.536Z,20.57
2018-05-08T06:11:54.624Z,20.50
2018-05-08T06:14:23.973Z,20.50
2018-05-08T06:16:53.166Z,20.41
2018-05-08T06:19:22.412Z,20.55
2018-05-08T06:21:51.752Z,20.57
2018-05-08T06:24:20.881Z,20.78
2018-05-08T06:26:50.292Z,20.63
2018-05-08T06:29:19.436Z,20.77
2018-05-08T06:31:48.604Z,20.56
2018-05-08T06:34:17.968Z,20.77
2018-05-08T06:36:47.364Z,20.96
2018-05-08T06:39:16.453Z,20.86
2018-05-08T06:41:45.507Z,20.99
2018-05-08T06:44:15.059Z,20.99
2018-05-08T06:46:44.252Z,20.98
2018-05-08T06:49:13.588Z,21.22
2018-05-08T06:51:42.720Z,21.08
2018-05-08T06:54:12.038Z,21.08
2018-05-08T06:56:41.087Z,21.17
2018-05-08T06:59:10.049Z,21.09
2018-05-08T07:01:39.340Z,21.39
2018-05-08T07:04:09.216Z,21.28
2018-05-08T07:06:38.593Z,21.47
2018-05-08T07:09:07.574Z,21.58
2018-05-08T07:11:36.705Z,21.75
2018-05-08T07:14:05.896Z,22.06
2018-05-08T07:16:34.868Z,21.96
2018-05-08T07:19:04.206Z,22.23
2018-05-08T07:21:33.770Z,22.25
2018-05-08T07:24:03.020Z,22.79
2018-05-08T07:26:32.304Z,22.37
2018-05-08T07:29:01.420Z,22.33
2018-05-08T07:31:30.469Z,22.90
2018-05-08T07:33:59.609Z,22.58
2018-05-08T07:36:29.082Z,22.26
2018-05-08T07:38:58.708Z,22.63
2018-05-08T07:41:27.884Z,22.62
2018-05-08T07:43:57.141Z,22.97
2018-05-08T07:46:26.377Z,22.67
2018-05-08T07:48:55.750Z,23.04
2018-05-08T07:51:25.095Z,23.29
2018-05-08T07:53:54.326Z,22.87
2018-05-08T07:56:24.092Z,23.01
2018-05-08T07:58:53.385Z,22.78
2018-05-08T08:01:22.472Z,23.07
2018-05-08T08:03:51.845Z,23.46
2018-05-08T08:06:21.108Z,23.76
2018-05-08T08:08:50.244Z,23.18
2018-05-08T08:11:19.564Z,23.43
2018-05-08T08:13:48.919Z,23.13
2018-05-08T08:16:18.437Z,23.40
2018-05-08T08:18:47.540Z,23.25
2018-05-08T08:21:16.916Z,23.38
2018-05-08T08:23:46.283Z,23.13
2018-05-08T08:26:15.550Z,23.34
2018-05-08T08:28:44.977Z,22.81
2018-05-08T08:31:14.153Z,23.28
2018-05-08T08:33:43.526Z,23.72
2018-05-08T08:36:12.845Z,23.34
2018-05-08T08:38:41.997Z,23.56
2018-05-08T08:41:11.214Z,23.69
2018-05-08T08:43:40.432Z,23.62
2018-05-08T08:46:09.720Z,23.61
2018-05-08T08:48:38.820Z,23.49
2018-05-08T08:51:07.798Z,23.37
2018-05-08T08:53:37.217Z,23.85
2018-05-08T08:56:07.392Z,23.76
2018-05-08T08:58:36.649Z,23.82
2018-05-08T09:01:05.768Z,23.78
2018-05-08T09:03:34.968Z,23.63
2018-05-08T09:06:04.438Z,23.67
2018-05-08T09:08:33.440Z,23.80
2018-05-08T09:11:02.493Z,23.70
2018-05-08T09:13:31.622Z,23.68
2018-05-08T09:16:00.696Z,24.30
2018-05-08T09:18:29.760Z,24.43
2018-05-08T09:20:59.009Z,24.32
2018-05-08T09:23:28.632Z,24.76
2018-05-08T09:25:57.784Z,24.61
2018-05-08T09:28:27.253Z,24.73
2018-05-08T09:30:56.648Z,24.12
2018-05-08T09:33:25.856Z,24.70
2018-05-08T09:35:54.968Z,24.25
2018-05-08T09:38:24.394Z,24.38
2018-05-08T09:40:53.742Z,24.77
2018-05-08T09:43:22.860Z,24.53
2018-05-08T09:45:51.859Z,25.12
2018-05-08T09:48:21.224Z,25.44
2018-05-08T09:50:50.390Z,24.84
2018-05-08T09:53:19.625Z,25.48
2018-05-08T09:55:48.760Z,26.20
2018-05-08T09:58:18.193Z,25.17
2018-05-08T10:00:47.507Z,25.88
2018-05-08T10:03:17.000Z,24.54
2018-05-08T10:05:46.229Z,24.14
2018-05-08T10:08:15.375Z,25.01
2018-05-08T10:10:45.107Z,25.23
2018-05-08T10:13:14.463Z,25.05
2018-05-08T10:15:43.679Z,25.50
2018-05-08T10:18:13.121Z,25.36
2018-05-08T10:20:42.563Z,25.17
2018-05-08T10:23:11.719Z,25.09
2018-05-08T10:25:40.848Z,25.28
2018-05-08T10:28:10.388Z,25.36
2018-05-08T10:30:39.554Z,24.75
2018-05-08T10:33:08.752Z,24.98
2018-05-08T10:35:37.892Z,24.99
2018-05-08T10:38:07.124Z,25.09
2018-05-08T10:40:36.595Z,25.44
2018-05-08T10:43:05.729Z,24.97
2018-05-08T10:45:35.149Z,25.31
2018-05-08T10:48:04.292Z,25.63
2018-05-08T10:50:33.558Z,25.32
2018-05-08T10:53:03.181Z,25.42
2018-05-08T10:55:32.264Z,25.27
2018-05-08T10:58:01.672Z,25.21
2018-05-08T11:00:31.038Z,25.38
2018-05-08T11:03:00.244Z,25.71
2018-05-08T11:05:29.296Z,24.68
2018-05-08T11:07:58.546Z,25.42
2018-05-08T11:10:28.516Z,25.34
2018-05-08T11:12:57.991Z,24.60
2018-05-08T11:15:27.280Z,25.47
2018-05-08T11:17:56.315Z,25.25
2018-05-08T11:20:25.484Z,25.30
2018-05-08T11:22:54.694Z,25.29
2018-05-08T11:25:23.977Z,25.53
2018-05-08T11:27:53.070Z,25.54
2018-05-08T11:30:22.334Z,25.01
2018-05-08T11:32:51.525Z,25.19
2018-05-08T11:35:20.877Z,25.47
2018-05-08T11:37:50.176Z,24.63
2018-05-08T11:40:19.386Z,25.33
2018-05-08T11:42:48.412Z,25.16
2018-05-08T11:45:17.721Z,25.40
2018-05-08T11:47:46.804Z,25.11
2018-05-08T11:50:15.984Z,25.25
2018-05-08T11:52:45.104Z,25.47
2018-05-08T11:55:14.357Z,25.54
2018-05-08T11:57:43.870Z,25.25
2018-05-08T12:00:13.264Z,25.45
2018-05-08T12:02:42.755Z,25.42
2018-05-08T12:05:11.883Z,25.65
2018-05-08T12:07:41.265Z,25.16
2018-05-08T12:10:10.455Z,24.51
2018-05-08T12:12:39.546Z,24.38
2018-05-08T12:15:08.988Z,24.29
2018-05-08T12:17:38.173Z,24.71
2018-05-08T12:20:07.404Z,24.62
2018-05-08T12:22:36.804Z,24.54
2018-05-08T12:25:05.824Z,24.68
2018-05-08T12:27:34.896Z,25.12
2018-05-08T12:30:04.169Z,24.42
2018-05-08T12:32:33.332Z,24.43
2018-05-08T12:35:02.708Z,24.70
2018-05-08T12:37:31.908Z,24.38
2018-05-08T12:40:01.220Z,24.82
2018-05-08T12:42:30.520Z,24.30
2018-05-08T12:44:59.848Z,24.10
2018-05-08T12:47:29.795Z,23.79
2018-05-08T12:49:59.207Z,23.94
2018-05-08T12:52:28.610Z,24.13
2018-05-08T12:54:57.986Z,24.28
2018-05-08T12:57:27.172Z,24.45
2018-05-08T12:59:56.672Z,24.01
2018-05-08T13:02:25.933Z,24.63
2018-05-08T13:04:55.516Z,24.05
2018-05-08T13:07:24.721Z,23.49
2018-05-08T13:09:53.832Z,23.67
2018-05-08T13:12:23.498Z,23.85
2018-05-08T13:14:52.638Z,24.19
2018-05-08T13:17:21.759Z,24.33
2018-05-08T13:19:50.941Z,24.17
2018-05-08T13:22:19.965Z,23.98
2018-05-08T13:24:49.145Z,24.52
2018-05-08T13:27:18.316Z,24.32
2018-05-08T13:29:47.534Z,24.43
2018-05-08T13:32:16.652Z,25.08
2018-05-08T13:34:45.840Z,24.63
2018-05-08T13:37:15.206Z,24.98
2018-05-08T13:39:44.592Z,24.60
2018-05-08T13:42:13.805Z,24.19
2018-05-08T13:44:42.890Z,24.25
2018-05-08T13:47:12.102Z,24.25
2018-05-08T13:49:41.331Z,24.37
2018-05-08T13:52:10.614Z,24.18
2018-05-08T13:54:39.880Z,24.43
2018-05-08T13:57:08.946Z,24.11
2018-05-08T13:59:38.341Z,24.64
2018-05-08T14:02:07.620Z,25.06
2018-05-08T14:04:36.744Z,24.67
2018-05-08T14:07:05.941Z,24.84
2018-05-08T14:09:35.329Z,24.92
2018-05-08T14:12:04.456Z,24.82
2018-05-08T14:14:33.681Z,23.75
2018-05-08T14:17:03.198Z,23.71
2018-05-08T14:19:32.354Z,23.19
2018-05-08T14:22:01.606Z,23.31
2018-05-08T14:24:30.764Z,23.19
2018-05-08T14:27:00.107Z,23.46
2018-05-08T14:29:29.519Z,23.16
2018-05-08T14:31:58.628Z,23.56
2018-05-08T14:34:27.803Z,23.00
2018-05-08T14:36:57.077Z,22.90
2018-05-08T14:39:26.333Z,22.66
2018-05-08T14:41:55.420Z,22.73
2018-05-08T14:44:24.590Z,22.60
2018-05-08T14:46:53.829Z,22.41
2018-05-08T14:49:22.909Z,22.44
2018-05-08T14:51:51.972Z,22.35
2018-05-08T14:54:21.087Z,21.97
2018-05-08T14:56:50.357Z,22.02
2018-05-08T14:59:19.636Z,21.70
2018-05-08T15:01:48.932Z,22.04
2018-05-08T15:04:18.679Z,21.61
2018-05-08T15:06:47.839Z,21.59
2018-05-08T15:09:17.316Z,21.56
2018-05-08T15:11:51.630Z,21.51
2018-05-08T15:14:20.724Z,21.57
2018-05-08T15:16:49.938Z,21.25
2018-05-08T15:19:19.049Z,20.84
2018-05-08T15:21:48.280Z,20.70
2018-05-08T15:24:17.620Z,20.61
2018-05-08T15:26:46.700Z,20.67
2018-05-08T15:29:16.905Z,20.75
2018-05-08T15:31:46.139Z,20.81
2018-05-08T15:34:15.388Z,20.92
2018-05-08T15:36:44.457Z,20.84
2018-05-08T15:39:13.698Z,20.72
2018-05-08T15:41:42.826Z,20.87
2018-05-08T15:44:12.025Z,20.64
2018-05-08T15:46:41.236Z,20.82
2018-05-08T15:49:10.436Z,21.31
2018-05-08T15:51:39.653Z,21.08
2018-05-08T15:54:08.709Z,21.13
2018-05-08T15:56:37.922Z,21.10
2018-05-08T15:59:07.122Z,21.14
2018-05-08T16:01:36.172Z,21.22
2018-05-08T16:04:05.136Z,21.14
2018-05-08T16:06:34.233Z,21.27
2018-05-08T16:09:03.460Z,20.99
2018-05-08T16:11:32.516Z,21.16
2018-05-08T16:14:01.544Z,20.89
2018-05-08T16:16:30.693Z,21.14
2018-05-08T16:18:59.813Z,21.07
2018-05-08T16:21:28.920Z,21.07
2018-05-08T16:23:58.044Z,21.02
2018-05-08T16:26:27.176Z,20.59
2018-05-08T16:28:56.381Z,20.55
2018-05-08T16:31:25.446Z,20.45
2018-05-08T16:33:54.689Z,20.52
2018-05-08T16:36:23.824Z,20.40
2018-05-08T16:38:53.016Z,20.17
2018-05-08T16:41:22.500Z,19.92
2018-05-08T16:43:51.624Z,19.72
2018-05-08T16:46:20.753Z,19.61
2018-05-08T16:48:49.845Z,19.46
2018-05-08T16:51:18.948Z,19.45
2018-05-08T16:53:48.013Z,19.32
2018-05-08T16:56:16.968Z,19.37
2018-05-08T16:58:46.108Z,19.36
2018-05-08T17:01:15.368Z,19.36
2018-05-08T17:03:44.468Z,19.37
2018-05-08T17:06:13.578Z,19.48
2018-05-08T17:08:42.838Z,19.25
2018-05-08T17:11:12.359Z,19.39
2018-05-08T17:13:41.526Z,19.19
2018-05-08T17:16:10.695Z,19.22
2018-05-08T17:18:39.681Z,19.38
2018-05-08T17:21:08.621Z,19.52
2018-05-08T17:23:37.560Z,19.42
2018-05-08T17:26:06.921Z,19.40
2018-05-08T17:28:36.208Z,19.55
2018-05-08T17:31:05.456Z,19.48
2018-05-08T17:33:35.017Z,19.40
2018-05-08T17:36:04.694Z,19.12
2018-05-08T17:38:34.344Z,18.90
2018-05-08T17:41:04.016Z,18.54
2018-05-08T17:43:34.045Z,18.32
2018-05-08T17:46:03.988Z,18.21
2018-05-08T17:48:33.677Z,18.26
2018-05-08T17:51:03.337Z,18.36
2018-05-08T17:53:32.876Z,18.22
2018-05-08T17:56:02.080Z,18.05
2018-05-08T17:58:31.184Z,18.29
2018-05-08T18:01:00.456Z,18.22
2018-05-08T18:03:29.677Z,17.98
2018-05-08T18:05:59.228Z,17.95
2018-05-08T18:08:29.581Z,18.22
2018-05-08T18:10:58.961Z,18.27
2018-05-08T18:13:28.347Z,18.07
2018-05-08T18:15:57.632Z,17.98
2018-05-08T18:18:26.936Z,17.78
2018-05-08T18:20:56.092Z,17.71
2018-05-08T18:23:25.224Z,17.71
2018-05-08T18:25:54.459Z,17.62
2018-05-08T18:28:23.645Z,17.69
2018-05-08T18:30:53.372Z,17.64
2018-05-08T18:33:22.442Z,17.60
2018-05-08T18:35:51.568Z,17.56
2018-05-08T18:38:21.064Z,17.45
2018-05-08T18:40:50.064Z,17.45
2018-05-08T18:43:19.293Z,17.55
2018-05-08T18:45:48.400Z,17.55
2018-05-08T18:48:17.468Z,17.58
2018-05-08T18:50:46.647Z,17.61
2018-05-08T18:53:15.664Z,17.66
2018-05-08T18:55:44.840Z,17.72
2018-05-08T18:58:13.920Z,17.65
2018-05-08T19:00:48.457Z,17.59
2018-05-08T19:03:18.856Z,17.58
2018-05-08T19:05:47.968Z,17.55
2018-05-08T19:08:17.225Z,17.56
2018-05-08T19:10:46.724Z,17.60
2018-05-08T19:13:17.488Z,17.61
2018-05-08T19:15:52.473Z,17.59
2018-05-08T19:21:19.025Z,17.56
2018-05-08T19:23:54.133Z,17.53
2018-05-08T19:26:23.394Z,17.53
2018-05-08T19:28:58.260Z,17.59
2018-05-08T19:31:27.609Z,17.55
2018-05-08T19:33:56.808Z,17.55
2018-05-08T19:36:31.453Z,17.54
2018-05-08T19:39:00.773Z,17.46
2018-05-08T19:41:29.852Z,17.49
2018-05-08T19:43:59.000Z,17.52
2018-05-08T19:46:28.200Z,17.60
2018-05-08T19:48:57.269Z,17.72
2018-05-08T19:51:26.592Z,17.74
2018-05-08T19:53:55.892Z,17.71
2018-05-08T19:56:25.126Z,17.69
2018-05-08T19:58:54.262Z,17.70
2018-05-08T20:01:23.413Z,17.70
2018-05-08T20:03:52.644Z,17.86
2018-05-08T20:06:21.833Z,17.78
2018-05-08T20:08:50.948Z,17.81
2018-05-08T20:11:19.874Z,17.82
2018-05-08T20:13:49.047Z,17.74
2018-05-08T20:16:18.269Z,17.75
2018-05-08T20:18:47.375Z,17.75
2018-05-08T20:21:16.473Z,17.74
2018-05-08T20:23:45.665Z,17.60
2018-05-08T20:26:14.798Z,17.59
2018-05-08T20:28:44.032Z,17.48
2018-05-08T20:31:13.196Z,17.46
2018-05-08T20:33:42.155Z,17.38
2018-05-08T20:36:11.169Z,17.49
2018-05-08T20:38:41.184Z,17.49
2018-05-08T20:41:10.268Z,17.49
2018-05-08T20:43:39.521Z,17.53
2018-05-08T20:46:08.696Z,17.56
2018-05-08T20:48:37.953Z,17.54
2018-05-08T20:51:07.004Z,17.54
2018-05-08T20:53:36.040Z,17.52
2018-05-08T20:56:05.509Z,17.58
2018-05-08T20:58:34.716Z,17.51
2018-05-08T21:01:03.814Z,17.50
2018-05-08T21:03:32.883Z,17.52
2018-05-08T21:06:02.116Z,17.49
2018-05-08T21:08:31.460Z,17.41
2018-05-08T21:11:00.670Z,17.49
2018-05-08T21:13:29.952Z,17.43
2018-05-08T21:15:59.676Z,17.46
2018-05-08T21:18:28.720Z,17.44
2018-05-08T21:20:57.889Z,17.40
2018-05-08T21:23:26.839Z,17.48
2018-05-08T21:25:55.857Z,17.45
2018-05-08T21:28:30.729Z,17.44
2018-05-08T21:31:05.232Z,17.48
2018-05-08T21:33:34.432Z,17.45
2018-05-08T21:36:03.847Z,17.44
2018-05-08T21:38:33.316Z,17.43
2018-05-08T21:41:02.859Z,17.40
2018-05-08T21:43:32.175Z,17.43
2018-05-08T21:46:01.231Z,17.47
2018-05-08T21:48:30.624Z,17.46
2018-05-08T21:50:59.879Z,17.43
2018-05-08T21:53:29.028Z,17.43
2018-05-08T21:55:58.217Z,17.46
2018-05-08T21:58:27.372Z,17.43
2018-05-08T22:00:56.858Z,17.34
2018-05-08T22:03:25.913Z,17.29
2018-05-08T22:05:55.244Z,17.32
2018-05-08T22:08:24.321Z,17.39
2018-05-08T22:10:53.463Z,17.32
2018-05-08T22:13:23.159Z,17.30
2018-05-08T22:15:52.171Z,17.29
2018-05-08T22:18:21.128Z,17.35
2018-05-08T22:20:50.140Z,17.35
2018-05-08T22:23:19.148Z,17.34
2018-05-08T22:25:48.292Z,17.44
2018-05-08T22:28:17.592Z,17.39
2018-05-08T22:30:46.707Z,17.40
2018-05-08T22:33:16.125Z,17.42
2018-05-08T22:35:45.256Z,17.44
2018-05-08T22:38:14.633Z,17.46
2018-05-08T22:40:44.008Z,17.48
2018-05-08T22:43:13.092Z,17.36
2018-05-08T22:45:42.642Z,17.44
2018-05-08T22:48:11.640Z,17.26
2018-05-08T22:50:40.663Z,17.20
2018-05-08T22:53:10.177Z,17.22
2018-05-08T22:55:39.617Z,17.22
2018-05-08T22:58:09.984Z,17.21
2018-05-08T23:00:39.573Z,17.20
2018-05-08T23:03:08.568Z,17.34
2018-05-08T23:05:37.777Z,17.25
2018-05-08T23:08:06.935Z,17.29
2018-05-08T23:10:36.072Z,17.33
2018-05-08T23:13:05.064Z,17.22
2018-05-08T23:15:34.176Z,17.26
2018-05-08T23:18:03.374Z,17.26
2018-05-08T23:20:32.734Z,17.29
2018-05-08T23:23:01.907Z,17.27
2018-05-08T23:25:31.322Z,17.43
2018-05-08T23:28:00.621Z,17.40
2018-05-08T23:30:29.837Z,17.32
2018-05-08T23:32:58.920Z,17.34
2018-05-08T23:35:28.121Z,17.39
2018-05-08T23:37:57.354Z,17.26
2018-05-08T23:40:26.617Z,17.23
2018-05-08T23:42:55.675Z,17.31
2018-05-08T23:45:24.762Z,17.18
2018-05-08T23:47:54.044Z,17.30
2018-05-08T23:50:23.354Z,17.31
2018-05-08T23:52:52.943Z,17.40
2018-05-08T23:55:22.408Z,17.32
2018-05-08T23:57:51.527Z,17.33
